sensor_id;sensor_type;location;lat;lon;timestamp;P1;durP1;ratioP1;P2;durP2;ratioP2
22289;SDS011;11313;50.116;8.424;2022-09-09T00:01:57;33.22;;;31.27;;
22289;SDS011;11313;50.116;8.424;2022-09-09T00:04:27;3.97;;;3.67;;
22289;SDS011;11313;50.116;8.424;2022-09-09T00:09:38;73.15;;;68.10;;
22289;SDS011;11313;50.116;8.424;2022-09-09T00:20:11;1999.90;;;999.90;;
22289;SDS011;11313;50.116;8.424;2022-09-09T00:23:04;1999.90;;;999.90;;
22289;SDS011;11313;50.116;8.424;2022-09-09T00:25:47;1999.90;;;999.90;;
22289;SDS011;11313;50.116;8.424;2022-09-09T00:28:19;1999.90;;;999.90;;
22289;SDS011;11313;50.116;8.424;2022-09-09T00:30:48;511.10;;;134.82;;
22289;SDS011;11313;50.116;8.424;2022-09-09T00:33:14;1999.90;;;999.90;;
22289;SDS011;11313;50.116;8.424;2022-09-09T00:35:51;1999.90;;;999.90;;
22289;SDS011;11313;50.116;8.424;2022-09-09T00:38:33;1999.90;;;520.58;;
22289;SDS011;11313;50.116;8.424;2022-09-09T00:41:03;1999.90;;;999.90;;
22289;SDS011;11313;50.116;8.424;2022-09-09T00:43:46;1999.90;;;999.90;;
22289;SDS011;11313;50.116;8.424;2022-09-09T00:51:59;1999.90;;;999.90;;
22289;SDS011;11313;50.116;8.424;2022-09-09T00:54:36;1999.90;;;999.90;;
22289;SDS011;11313;50.116;8.424;2022-09-09T00:57:22;1999.90;;;999.90;;
22289;SDS011;11313;50.116;8.424;2022-09-09T00:59:50;1999.90;;;999.90;;
22289;SDS011;11313;50.116;8.424;2022-09-09T01:04:53;1999.90;;;999.90;;
22289;SDS011;11313;50.116;8.424;2022-09-09T01:07:19;1999.90;;;999.90;;
22289;SDS011;11313;50.116;8.424;2022-09-09T01:09:50;1999.90;;;999.90;;
22289;SDS011;11313;50.116;8.424;2022-09-09T01:12:25;1556.57;;;756.00;;
22289;SDS011;11313;50.116;8.424;2022-09-09T01:15:00;1999.90;;;999.90;;
22289;SDS011;11313;50.116;8.424;2022-09-09T01:17:36;1999.90;;;999.90;;
22289;SDS011;11313;50.116;8.424;2022-09-09T01:20:12;1999.90;;;999.90;;
22289;SDS011;11313;50.116;8.424;2022-09-09T01:28:33;1999.90;;;999.90;;
22289;SDS011;11313;50.116;8.424;2022-09-09T01:31:02;1999.90;;;999.90;;
22289;SDS011;11313;50.116;8.424;2022-09-09T01:33:30;1999.90;;;999.90;;
22289;SDS011;11313;50.116;8.424;2022-09-09T01:35:57;1999.90;;;999.90;;
22289;SDS011;11313;50.116;8.424;2022-09-09T01:38:29;1999.90;;;999.90;;
22289;SDS011;11313;50.116;8.424;2022-09-09T01:40:56;1999.90;;;999.90;;
22289;SDS011;11313;50.116;8.424;2022-09-09T01:43:23;3.20;;;0.90;;
22289;SDS011;11313;50.116;8.424;2022-09-09T01:45:51;0.90;;;0.65;;
22289;SDS011;11313;50.116;8.424;2022-09-09T01:48:19;3.05;;;0.70;;
22289;SDS011;11313;50.116;8.424;2022-09-09T01:50:47;0.98;;;0.70;;
22289;SDS011;11313;50.116;8.424;2022-09-09T01:53:13;1.27;;;0.70;;
22289;SDS011;11313;50.116;8.424;2022-09-09T01:55:42;2.92;;;2.72;;
22289;SDS011;11313;50.116;8.424;2022-09-09T01:58:37;2.20;;;2.00;;
22289;SDS011;11313;50.116;8.424;2022-09-09T02:03:50;42.80;;;38.95;;
22289;SDS011;11313;50.116;8.424;2022-09-09T02:08:47;1.10;;;0.63;;
22289;SDS011;11313;50.116;8.424;2022-09-09T02:11:19;1.05;;;0.60;;
22289;SDS011;11313;50.116;8.424;2022-09-09T02:13:47;0.95;;;0.70;;
22289;SDS011;11313;50.116;8.424;2022-09-09T02:16:30;1.13;;;0.80;;
22289;SDS011;11313;50.116;8.424;2022-09-09T02:19:07;2.05;;;0.85;;
22289;SDS011;11313;50.116;8.424;2022-09-09T02:21:52;1.52;;;0.80;;
22289;SDS011;11313;50.116;8.424;2022-09-09T02:24:19;3.15;;;0.90;;
22289;SDS011;11313;50.116;8.424;2022-09-09T02:26:46;1.13;;;0.60;;
22289;SDS011;11313;50.116;8.424;2022-09-09T02:29:19;0.95;;;0.70;;
22289;SDS011;11313;50.116;8.424;2022-09-09T02:31:54;1.13;;;0.80;;
22289;SDS011;11313;50.116;8.424;2022-09-09T02:34:28;1.10;;;0.63;;
22289;SDS011;11313;50.116;8.424;2022-09-09T02:36:55;2.55;;;0.70;;
22289;SDS011;11313;50.116;8.424;2022-09-09T02:39:24;1.17;;;0.77;;
22289;SDS011;11313;50.116;8.424;2022-09-09T02:41:50;0.82;;;0.60;;
22289;SDS011;11313;50.116;8.424;2022-09-09T02:44:16;6.00;;;1.25;;
22289;SDS011;11313;50.116;8.424;2022-09-09T02:52:02;0.98;;;0.63;;
22289;SDS011;11313;50.116;8.424;2022-09-09T02:54:32;0.90;;;0.70;;
22289;SDS011;11313;50.116;8.424;2022-09-09T02:57:21;1.33;;;0.60;;
22289;SDS011;11313;50.116;8.424;2022-09-09T02:59:50;1.45;;;0.65;;
22289;SDS011;11313;50.116;8.424;2022-09-09T03:02:17;0.93;;;0.68;;
22289;SDS011;11313;50.116;8.424;2022-09-09T03:04:43;1.95;;;0.65;;
22289;SDS011;11313;50.116;8.424;2022-09-09T03:07:09;1.23;;;0.80;;
22289;SDS011;11313;50.116;8.424;2022-09-09T03:09:35;1.10;;;0.77;;
22289;SDS011;11313;50.116;8.424;2022-09-09T03:12:01;1.13;;;0.60;;
22289;SDS011;11313;50.116;8.424;2022-09-09T03:14:29;0.82;;;0.50;;
22289;SDS011;11313;50.116;8.424;2022-09-09T03:16:55;2.03;;;0.90;;
22289;SDS011;11313;50.116;8.424;2022-09-09T03:19:22;0.90;;;0.65;;
22289;SDS011;11313;50.116;8.424;2022-09-09T03:21:48;1.52;;;0.73;;
22289;SDS011;11313;50.116;8.424;2022-09-09T03:24:14;0.95;;;0.68;;
22289;SDS011;11313;50.116;8.424;2022-09-09T03:26:40;9.95;;;0.57;;
22289;SDS011;11313;50.116;8.424;2022-09-09T03:29:09;2.47;;;0.85;;
22289;SDS011;11313;50.116;8.424;2022-09-09T03:31:36;37.70;;;35.10;;
22289;SDS011;11313;50.116;8.424;2022-09-09T03:34:02;2.15;;;0.80;;
22289;SDS011;11313;50.116;8.424;2022-09-09T03:36:27;1.10;;;0.50;;
22289;SDS011;11313;50.116;8.424;2022-09-09T03:38:54;1.33;;;0.60;;
22289;SDS011;11313;50.116;8.424;2022-09-09T03:41:20;508.13;;;453.52;;
22289;SDS011;11313;50.116;8.424;2022-09-09T03:43:48;0.80;;;0.60;;
22289;SDS011;11313;50.116;8.424;2022-09-09T03:46:15;222.75;;;140.55;;
22289;SDS011;11313;50.116;8.424;2022-09-09T03:48:41;1714.30;;;980.45;;
22289;SDS011;11313;50.116;8.424;2022-09-09T03:51:06;1595.15;;;990.95;;
22289;SDS011;11313;50.116;8.424;2022-09-09T03:53:32;5.13;;;4.72;;
22289;SDS011;11313;50.116;8.424;2022-09-09T03:55:58;36.05;;;30.50;;
22289;SDS011;11313;50.116;8.424;2022-09-09T03:58:25;0.80;;;0.60;;
22289;SDS011;11313;50.116;8.424;2022-09-09T04:01:08;24.67;;;22.17;;
22289;SDS011;11313;50.116;8.424;2022-09-09T04:03:35;196.43;;;176.68;;
22289;SDS011;11313;50.116;8.424;2022-09-09T04:06:01;55.60;;;49.47;;
22289;SDS011;11313;50.116;8.424;2022-09-09T04:08:29;383.25;;;277.40;;
22289;SDS011;11313;50.116;8.424;2022-09-09T04:10:58;150.85;;;102.47;;
22289;SDS011;11313;50.116;8.424;2022-09-09T04:13:24;93.85;;;67.53;;
22289;SDS011;11313;50.116;8.424;2022-09-09T04:15:51;198.52;;;117.75;;
22289;SDS011;11313;50.116;8.424;2022-09-09T04:18:18;209.05;;;130.32;;
22289;SDS011;11313;50.116;8.424;2022-09-09T04:20:48;268.00;;;134.75;;
22289;SDS011;11313;50.116;8.424;2022-09-09T04:23:15;104.15;;;69.57;;
22289;SDS011;11313;50.116;8.424;2022-09-09T04:25:48;719.13;;;645.53;;
22289;SDS011;11313;50.116;8.424;2022-09-09T04:28:15;80.63;;;72.32;;
22289;SDS011;11313;50.116;8.424;2022-09-09T04:30:42;236.90;;;180.13;;
22289;SDS011;11313;50.116;8.424;2022-09-09T04:33:08;114.88;;;79.15;;
22289;SDS011;11313;50.116;8.424;2022-09-09T04:35:34;135.23;;;96.13;;
22289;SDS011;11313;50.116;8.424;2022-09-09T04:38:00;856.10;;;781.40;;
22289;SDS011;11313;50.116;8.424;2022-09-09T04:40:27;140.35;;;128.38;;
22289;SDS011;11313;50.116;8.424;2022-09-09T04:42:54;126.45;;;80.20;;
22289;SDS011;11313;50.116;8.424;2022-09-09T04:45:20;73.78;;;58.40;;
22289;SDS011;11313;50.116;8.424;2022-09-09T04:47:46;1.95;;;0.80;;
22289;SDS011;11313;50.116;8.424;2022-09-09T04:50:11;743.60;;;679.15;;
22289;SDS011;11313;50.116;8.424;2022-09-09T04:52:37;97.43;;;57.38;;
22289;SDS011;11313;50.116;8.424;2022-09-09T04:55:03;153.30;;;86.13;;
22289;SDS011;11313;50.116;8.424;2022-09-09T04:57:29;1001.85;;;880.92;;
22289;SDS011;11313;50.116;8.424;2022-09-09T04:59:56;1174.53;;;867.53;;
22289;SDS011;11313;50.116;8.424;2022-09-09T05:02:22;1272.70;;;955.70;;
22289;SDS011;11313;50.116;8.424;2022-09-09T05:04:48;764.50;;;701.65;;
22289;SDS011;11313;50.116;8.424;2022-09-09T05:07:14;394.05;;;351.45;;
22289;SDS011;11313;50.116;8.424;2022-09-09T05:09:40;64.32;;;58.85;;
22289;SDS011;11313;50.116;8.424;2022-09-09T05:12:05;238.80;;;181.40;;
22289;SDS011;11313;50.116;8.424;2022-09-09T05:14:31;166.70;;;147.23;;
22289;SDS011;11313;50.116;8.424;2022-09-09T05:16:57;167.90;;;122.57;;
22289;SDS011;11313;50.116;8.424;2022-09-09T05:19:23;429.83;;;213.75;;
22289;SDS011;11313;50.116;8.424;2022-09-09T05:21:48;964.22;;;582.45;;
22289;SDS011;11313;50.116;8.424;2022-09-09T05:24:15;283.20;;;133.45;;
22289;SDS011;11313;50.116;8.424;2022-09-09T05:26:40;1999.90;;;999.90;;
22289;SDS011;11313;50.116;8.424;2022-09-09T05:29:06;1319.22;;;666.45;;
22289;SDS011;11313;50.116;8.424;2022-09-09T05:31:33;1999.90;;;999.90;;
22289;SDS011;11313;50.116;8.424;2022-09-09T05:33:58;1999.90;;;770.92;;
22289;SDS011;11313;50.116;8.424;2022-09-09T05:36:24;1999.90;;;417.20;;
22289;SDS011;11313;50.116;8.424;2022-09-09T05:38:50;1999.90;;;999.03;;
22289;SDS011;11313;50.116;8.424;2022-09-09T05:41:16;1999.90;;;999.90;;
22289;SDS011;11313;50.116;8.424;2022-09-09T05:43:42;1999.90;;;999.90;;
22289;SDS011;11313;50.116;8.424;2022-09-09T05:46:16;708.83;;;272.75;;
22289;SDS011;11313;50.116;8.424;2022-09-09T05:48:43;1999.90;;;999.90;;
22289;SDS011;11313;50.116;8.424;2022-09-09T05:51:12;1999.90;;;999.90;;
22289;SDS011;11313;50.116;8.424;2022-09-09T05:53:43;1999.90;;;835.20;;
22289;SDS011;11313;50.116;8.424;2022-09-09T05:56:16;1999.90;;;999.90;;
22289;SDS011;11313;50.116;8.424;2022-09-09T05:58:43;1999.90;;;999.90;;
22289;SDS011;11313;50.116;8.424;2022-09-09T06:01:19;1999.90;;;999.90;;
22289;SDS011;11313;50.116;8.424;2022-09-09T06:03:50;1999.90;;;197.30;;
22289;SDS011;11313;50.116;8.424;2022-09-09T06:06:17;1999.90;;;999.90;;
22289;SDS011;11313;50.116;8.424;2022-09-09T06:08:48;1999.90;;;999.90;;
22289;SDS011;11313;50.116;8.424;2022-09-09T06:11:17;909.33;;;808.33;;
22289;SDS011;11313;50.116;8.424;2022-09-09T06:16:17;901.42;;;771.47;;
22289;SDS011;11313;50.116;8.424;2022-09-09T06:18:43;1011.95;;;900.90;;
22289;SDS011;11313;50.116;8.424;2022-09-09T06:21:11;1156.85;;;759.35;;
22289;SDS011;11313;50.116;8.424;2022-09-09T06:23:40;1058.63;;;889.28;;
22289;SDS011;11313;50.116;8.424;2022-09-09T06:26:09;1999.90;;;999.90;;
22289;SDS011;11313;50.116;8.424;2022-09-09T06:28:39;1999.90;;;999.90;;
22289;SDS011;11313;50.116;8.424;2022-09-09T06:31:06;1107.47;;;671.33;;
22289;SDS011;11313;50.116;8.424;2022-09-09T06:33:34;314.98;;;45.83;;
22289;SDS011;11313;50.116;8.424;2022-09-09T06:36:06;807.22;;;462.92;;
22289;SDS011;11313;50.116;8.424;2022-09-09T06:38:35;1999.90;;;999.90;;
22289;SDS011;11313;50.116;8.424;2022-09-09T06:41:00;625.63;;;230.60;;
22289;SDS011;11313;50.116;8.424;2022-09-09T06:43:26;1525.28;;;789.30;;
22289;SDS011;11313;50.116;8.424;2022-09-09T06:45:55;1310.32;;;587.13;;
22289;SDS011;11313;50.116;8.424;2022-09-09T06:48:21;394.27;;;68.75;;
22289;SDS011;11313;50.116;8.424;2022-09-09T06:50:47;1999.90;;;853.95;;
22289;SDS011;11313;50.116;8.424;2022-09-09T06:53:16;938.38;;;240.20;;
22289;SDS011;11313;50.116;8.424;2022-09-09T06:55:44;798.58;;;124.15;;
22289;SDS011;11313;50.116;8.424;2022-09-09T06:58:10;453.50;;;61.53;;
22289;SDS011;11313;50.116;8.424;2022-09-09T07:00:35;412.77;;;73.10;;
22289;SDS011;11313;50.116;8.424;2022-09-09T07:03:03;1999.90;;;799.15;;
22289;SDS011;11313;50.116;8.424;2022-09-09T07:05:30;953.25;;;208.57;;
22289;SDS011;11313;50.116;8.424;2022-09-09T07:07:55;50.30;;;46.38;;
22289;SDS011;11313;50.116;8.424;2022-09-09T07:10:21;1046.43;;;461.80;;
22289;SDS011;11313;50.116;8.424;2022-09-09T07:12:50;1131.68;;;691.70;;
22289;SDS011;11313;50.116;8.424;2022-09-09T07:15:19;581.45;;;345.98;;
22289;SDS011;11313;50.116;8.424;2022-09-09T07:17:46;1999.90;;;999.90;;
22289;SDS011;11313;50.116;8.424;2022-09-09T07:20:13;1999.90;;;954.50;;
22289;SDS011;11313;50.116;8.424;2022-09-09T07:22:39;1999.90;;;999.90;;
22289;SDS011;11313;50.116;8.424;2022-09-09T07:25:06;1999.90;;;999.90;;
22289;SDS011;11313;50.116;8.424;2022-09-09T07:27:32;1999.90;;;999.90;;
22289;SDS011;11313;50.116;8.424;2022-09-09T07:29:58;1999.90;;;999.90;;
22289;SDS011;11313;50.116;8.424;2022-09-09T07:32:23;1001.45;;;748.90;;
22289;SDS011;11313;50.116;8.424;2022-09-09T07:34:50;1999.90;;;999.90;;
22289;SDS011;11313;50.116;8.424;2022-09-09T07:37:16;1999.90;;;999.90;;
22289;SDS011;11313;50.116;8.424;2022-09-09T07:39:42;997.40;;;664.30;;
22289;SDS011;11313;50.116;8.424;2022-09-09T07:42:08;1726.53;;;951.20;;
22289;SDS011;11313;50.116;8.424;2022-09-09T07:44:36;1999.90;;;999.90;;
22289;SDS011;11313;50.116;8.424;2022-09-09T07:47:04;1137.25;;;841.78;;
22289;SDS011;11313;50.116;8.424;2022-09-09T07:49:30;219.70;;;51.63;;
22289;SDS011;11313;50.116;8.424;2022-09-09T07:51:57;168.75;;;35.33;;
22289;SDS011;11313;50.116;8.424;2022-09-09T07:54:23;333.90;;;76.45;;
22289;SDS011;11313;50.116;8.424;2022-09-09T07:56:49;856.03;;;707.28;;
22289;SDS011;11313;50.116;8.424;2022-09-09T07:59:16;765.22;;;682.90;;
22289;SDS011;11313;50.116;8.424;2022-09-09T08:01:48;688.95;;;600.00;;
22289;SDS011;11313;50.116;8.424;2022-09-09T08:04:17;593.83;;;529.90;;
22289;SDS011;11313;50.116;8.424;2022-09-09T08:06:46;99.90;;;9.98;;
22289;SDS011;11313;50.116;8.424;2022-09-09T08:09:17;168.02;;;17.98;;
22289;SDS011;11313;50.116;8.424;2022-09-09T08:11:43;122.75;;;21.75;;
22289;SDS011;11313;50.116;8.424;2022-09-09T08:14:09;172.45;;;83.13;;
22289;SDS011;11313;50.116;8.424;2022-09-09T08:16:43;408.10;;;323.52;;
22289;SDS011;11313;50.116;8.424;2022-09-09T08:19:10;1146.97;;;622.63;;
22289;SDS011;11313;50.116;8.424;2022-09-09T08:21:37;1999.90;;;999.90;;
22289;SDS011;11313;50.116;8.424;2022-09-09T08:24:05;1999.90;;;999.90;;
22289;SDS011;11313;50.116;8.424;2022-09-09T08:26:35;1385.55;;;926.15;;
22289;SDS011;11313;50.116;8.424;2022-09-09T08:29:03;327.55;;;109.80;;
22289;SDS011;11313;50.116;8.424;2022-09-09T08:31:30;178.50;;;143.63;;
22289;SDS011;11313;50.116;8.424;2022-09-09T08:33:57;592.25;;;531.72;;
22289;SDS011;11313;50.116;8.424;2022-09-09T08:36:32;499.83;;;164.20;;
22289;SDS011;11313;50.116;8.424;2022-09-09T08:38:59;118.68;;;84.22;;
22289;SDS011;11313;50.116;8.424;2022-09-09T08:47:19;183.18;;;64.50;;
22289;SDS011;11313;50.116;8.424;2022-09-09T08:50:28;734.47;;;661.25;;
22289;SDS011;11313;50.116;8.424;2022-09-09T08:53:00;275.73;;;89.68;;
22289;SDS011;11313;50.116;8.424;2022-09-09T08:55:50;414.73;;;129.20;;
22289;SDS011;11313;50.116;8.424;2022-09-09T08:58:22;294.52;;;127.45;;
22289;SDS011;11313;50.116;8.424;2022-09-09T09:09:02;529.75;;;304.08;;
22289;SDS011;11313;50.116;8.424;2022-09-09T09:11:53;539.45;;;134.70;;
22289;SDS011;11313;50.116;8.424;2022-09-09T09:14:26;1999.90;;;999.90;;
22289;SDS011;11313;50.116;8.424;2022-09-09T09:16:59;1213.78;;;841.55;;
22289;SDS011;11313;50.116;8.424;2022-09-09T09:19:28;1357.75;;;793.83;;
22289;SDS011;11313;50.116;8.424;2022-09-09T09:22:04;456.48;;;118.95;;
22289;SDS011;11313;50.116;8.424;2022-09-09T09:30:21;209.80;;;55.58;;
22289;SDS011;11313;50.116;8.424;2022-09-09T09:33:11;243.32;;;71.57;;
22289;SDS011;11313;50.116;8.424;2022-09-09T09:35:40;678.33;;;541.60;;
22289;SDS011;11313;50.116;8.424;2022-09-09T09:38:16;1601.75;;;919.45;;
22289;SDS011;11313;50.116;8.424;2022-09-09T09:40:54;697.55;;;620.40;;
22289;SDS011;11313;50.116;8.424;2022-09-09T09:43:33;1416.88;;;850.08;;
22289;SDS011;11313;50.116;8.424;2022-09-09T09:46:00;1999.90;;;999.90;;
22289;SDS011;11313;50.116;8.424;2022-09-09T09:48:26;30.98;;;18.58;;
22289;SDS011;11313;50.116;8.424;2022-09-09T09:50:54;182.25;;;74.45;;
22289;SDS011;11313;50.116;8.424;2022-09-09T09:53:33;240.73;;;91.53;;
22289;SDS011;11313;50.116;8.424;2022-09-09T09:56:01;652.40;;;252.30;;
22289;SDS011;11313;50.116;8.424;2022-09-09T09:58:32;251.43;;;70.40;;
22289;SDS011;11313;50.116;8.424;2022-09-09T10:06:43;1109.35;;;851.47;;
22289;SDS011;11313;50.116;8.424;2022-09-09T10:09:20;1999.90;;;999.90;;
22289;SDS011;11313;50.116;8.424;2022-09-09T10:11:59;1999.90;;;472.75;;
22289;SDS011;11313;50.116;8.424;2022-09-09T10:14:51;1999.90;;;768.13;;
22289;SDS011;11313;50.116;8.424;2022-09-09T10:20:24;1999.90;;;995.10;;
22289;SDS011;11313;50.116;8.424;2022-09-09T10:23:15;1999.90;;;695.22;;
22289;SDS011;11313;50.116;8.424;2022-09-09T10:28:39;1999.90;;;999.90;;
22289;SDS011;11313;50.116;8.424;2022-09-09T10:34:35;1999.90;;;999.90;;
22289;SDS011;11313;50.116;8.424;2022-09-09T10:37:30;1999.90;;;472.00;;
22289;SDS011;11313;50.116;8.424;2022-09-09T10:43:33;1999.90;;;799.58;;
22289;SDS011;11313;50.116;8.424;2022-09-09T10:51:21;1999.90;;;999.90;;
22289;SDS011;11313;50.116;8.424;2022-09-09T10:56:25;1999.90;;;274.73;;
22289;SDS011;11313;50.116;8.424;2022-09-09T10:59:16;1999.90;;;999.90;;
22289;SDS011;11313;50.116;8.424;2022-09-09T11:01:58;1999.90;;;999.90;;
22289;SDS011;11313;50.116;8.424;2022-09-09T11:04:33;1999.90;;;999.90;;
22289;SDS011;11313;50.116;8.424;2022-09-09T11:07:05;1999.90;;;999.90;;
22289;SDS011;11313;50.116;8.424;2022-09-09T11:09:36;1999.90;;;999.90;;
22289;SDS011;11313;50.116;8.424;2022-09-09T11:12:06;1999.90;;;999.90;;
22289;SDS011;11313;50.116;8.424;2022-09-09T11:14:45;1999.90;;;999.90;;
22289;SDS011;11313;50.116;8.424;2022-09-09T11:17:22;1999.90;;;365.13;;
22289;SDS011;11313;50.116;8.424;2022-09-09T12:45:34;53.10;;;49.85;;
22289;SDS011;11313;50.116;8.424;2022-09-09T12:51:33;37.70;;;9.13;;
22289;SDS011;11313;50.116;8.424;2022-09-09T12:54:12;164.02;;;143.30;;
22289;SDS011;11313;50.116;8.424;2022-09-09T12:56:46;178.15;;;164.27;;
22289;SDS011;11313;50.116;8.424;2022-09-09T12:59:26;11.98;;;2.95;;
22289;SDS011;11313;50.116;8.424;2022-09-09T13:02:16;11.35;;;2.88;;
22289;SDS011;11313;50.116;8.424;2022-09-09T13:04:47;9.82;;;9.23;;
22289;SDS011;11313;50.116;8.424;2022-09-09T13:07:17;43.28;;;40.67;;
22289;SDS011;11313;50.116;8.424;2022-09-09T13:09:49;50.58;;;3.15;;
22289;SDS011;11313;50.116;8.424;2022-09-09T14:37:31;1.55;;;0.70;;
22289;SDS011;11313;50.116;8.424;2022-09-09T14:39:56;0.90;;;0.63;;
22289;SDS011;11313;50.116;8.424;2022-09-09T14:42:22;2.45;;;2.25;;
22289;SDS011;11313;50.116;8.424;2022-09-09T14:44:48;2.25;;;0.63;;
22289;SDS011;11313;50.116;8.424;2022-09-09T14:47:14;0.82;;;0.40;;
22289;SDS011;11313;50.116;8.424;2022-09-09T14:49:39;0.30;;;0.30;;
22289;SDS011;11313;50.116;8.424;2022-09-09T14:52:08;1.48;;;0.57;;
22289;SDS011;11313;50.116;8.424;2022-09-09T14:54:34;0.90;;;0.50;;
22289;SDS011;11313;50.116;8.424;2022-09-09T14:57:00;1.63;;;1.52;;
22289;SDS011;11313;50.116;8.424;2022-09-09T14:59:25;0.55;;;0.55;;
22289;SDS011;11313;50.116;8.424;2022-09-09T15:01:57;1.45;;;0.60;;
22289;SDS011;11313;50.116;8.424;2022-09-09T15:04:31;1.75;;;0.63;;
22289;SDS011;11313;50.116;8.424;2022-09-09T15:07:10;1.42;;;0.70;;
22289;SDS011;11313;50.116;8.424;2022-09-09T15:09:45;1.33;;;0.73;;
22289;SDS011;11313;50.116;8.424;2022-09-09T15:12:32;1.08;;;0.73;;
22289;SDS011;11313;50.116;8.424;2022-09-09T15:15:36;1.33;;;0.82;;
22289;SDS011;11313;50.116;8.424;2022-09-09T15:18:32;1.42;;;0.85;;
22289;SDS011;11313;50.116;8.424;2022-09-09T17:36:27;2.30;;;2.10;;
22289;SDS011;11313;50.116;8.424;2022-09-09T17:43:10;8.20;;;0.80;;
22289;SDS011;11313;50.116;8.424;2022-09-09T17:46:38;1.55;;;0.73;;
22289;SDS011;11313;50.116;8.424;2022-09-09T17:49:47;2.42;;;2.30;;
22289;SDS011;11313;50.116;8.424;2022-09-09T17:52:20;1.50;;;1.27;;
22289;SDS011;11313;50.116;8.424;2022-09-09T17:54:46;4.22;;;3.92;;
22289;SDS011;11313;50.116;8.424;2022-09-09T17:57:11;1.38;;;1.27;;
22289;SDS011;11313;50.116;8.424;2022-09-09T17:59:59;1.70;;;0.73;;
22289;SDS011;11313;50.116;8.424;2022-09-09T18:03:12;1.10;;;0.80;;
22289;SDS011;11313;50.116;8.424;2022-09-09T18:05:55;1.83;;;1.10;;
22289;SDS011;11313;50.116;8.424;2022-09-09T18:08:40;1.38;;;1.05;;
22289;SDS011;11313;50.116;8.424;2022-09-09T18:35:09;2.53;;;0.70;;
22289;SDS011;11313;50.116;8.424;2022-09-09T18:37:42;2.25;;;2.05;;
22289;SDS011;11313;50.116;8.424;2022-09-09T18:40:14;1.83;;;0.90;;
22289;SDS011;11313;50.116;8.424;2022-09-09T18:42:52;1.15;;;0.80;;
22289;SDS011;11313;50.116;8.424;2022-09-09T18:45:18;2.08;;;0.70;;
22289;SDS011;11313;50.116;8.424;2022-09-09T18:47:51;3.13;;;1.08;;
22289;SDS011;11313;50.116;8.424;2022-09-09T18:50:20;0.85;;;0.60;;
22289;SDS011;11313;50.116;8.424;2022-09-09T18:53:00;1.40;;;1.10;;
22289;SDS011;11313;50.116;8.424;2022-09-09T18:55:28;1.10;;;0.70;;
22289;SDS011;11313;50.116;8.424;2022-09-09T18:58:16;2.20;;;0.73;;
22289;SDS011;11313;50.116;8.424;2022-09-09T19:00:50;2.03;;;0.82;;
22289;SDS011;11313;50.116;8.424;2022-09-09T19:03:18;2.30;;;1.67;;
22289;SDS011;11313;50.116;8.424;2022-09-09T19:05:48;2.25;;;0.70;;
22289;SDS011;11313;50.116;8.424;2022-09-09T19:08:36;2.95;;;0.60;;
22289;SDS011;11313;50.116;8.424;2022-09-09T19:11:16;1.17;;;0.70;;
22289;SDS011;11313;50.116;8.424;2022-09-09T19:13:57;2.80;;;0.95;;
22289;SDS011;11313;50.116;8.424;2022-09-09T19:16:47;1.67;;;0.57;;
22289;SDS011;11313;50.116;8.424;2022-09-09T19:19:34;2.20;;;0.60;;
22289;SDS011;11313;50.116;8.424;2022-09-09T19:28:20;2.00;;;0.95;;
22289;SDS011;11313;50.116;8.424;2022-09-09T19:31:26;0.95;;;0.65;;
22289;SDS011;11313;50.116;8.424;2022-09-09T19:33:59;2.63;;;1.35;;
22289;SDS011;11313;50.116;8.424;2022-09-09T19:36:28;2.28;;;1.02;;
22289;SDS011;11313;50.116;8.424;2022-09-09T19:39:08;1.00;;;0.65;;
22289;SDS011;11313;50.116;8.424;2022-09-09T19:41:39;1.70;;;0.70;;
22289;SDS011;11313;50.116;8.424;2022-09-09T19:44:16;1.17;;;0.70;;
22289;SDS011;11313;50.116;8.424;2022-09-09T19:46:49;1.30;;;0.68;;
22289;SDS011;11313;50.116;8.424;2022-09-09T19:49:30;1.58;;;0.85;;
22289;SDS011;11313;50.116;8.424;2022-09-09T19:52:04;1.90;;;0.90;;
22289;SDS011;11313;50.116;8.424;2022-09-09T19:55:05;6.78;;;1.95;;
22289;SDS011;11313;50.116;8.424;2022-09-09T19:57:31;8.43;;;7.93;;
22289;SDS011;11313;50.116;8.424;2022-09-09T20:00:16;3.13;;;1.23;;
22289;SDS011;11313;50.116;8.424;2022-09-09T20:02:51;0.80;;;0.80;;
22289;SDS011;11313;50.116;8.424;2022-09-09T20:05:31;1.83;;;0.60;;
22289;SDS011;11313;50.116;8.424;2022-09-09T20:08:04;4.88;;;1.75;;
22289;SDS011;11313;50.116;8.424;2022-09-09T20:10:51;1.40;;;0.82;;
22289;SDS011;11313;50.116;8.424;2022-09-09T20:13:22;120.45;;;6.20;;
22289;SDS011;11313;50.116;8.424;2022-09-09T20:16:01;2.47;;;0.88;;
22289;SDS011;11313;50.116;8.424;2022-09-09T20:18:47;108.60;;;4.30;;
22289;SDS011;11313;50.116;8.424;2022-09-09T20:21:19;0.95;;;0.90;;
22289;SDS011;11313;50.116;8.424;2022-09-09T20:23:47;1.60;;;1.50;;
22289;SDS011;11313;50.116;8.424;2022-09-09T20:26:28;1.67;;;0.50;;
22289;SDS011;11313;50.116;8.424;2022-09-09T20:28:59;1.50;;;0.70;;
22289;SDS011;11313;50.116;8.424;2022-09-09T20:31:35;1.85;;;0.80;;
22289;SDS011;11313;50.116;8.424;2022-09-09T20:34:13;1.55;;;1.00;;
22289;SDS011;11313;50.116;8.424;2022-09-09T20:36:55;2.67;;;1.13;;
22289;SDS011;11313;50.116;8.424;2022-09-09T20:39:39;1.40;;;0.93;;
22289;SDS011;11313;50.116;8.424;2022-09-09T20:42:34;2.28;;;1.70;;
22289;SDS011;11313;50.116;8.424;2022-09-09T20:45:33;1.67;;;1.02;;
22289;SDS011;11313;50.116;8.424;2022-09-09T20:48:07;1.13;;;0.60;;
22289;SDS011;11313;50.116;8.424;2022-09-09T20:50:51;1.52;;;0.70;;
22289;SDS011;11313;50.116;8.424;2022-09-09T20:53:21;2.28;;;0.93;;
22289;SDS011;11313;50.116;8.424;2022-09-09T20:55:54;1.63;;;0.77;;
22289;SDS011;11313;50.116;8.424;2022-09-09T20:58:46;1.35;;;1.25;;
22289;SDS011;11313;50.116;8.424;2022-09-09T21:01:15;1.48;;;1.30;;
22289;SDS011;11313;50.116;8.424;2022-09-09T21:03:46;1.70;;;0.60;;
22289;SDS011;11313;50.116;8.424;2022-09-09T21:06:15;2.30;;;0.82;;
22289;SDS011;11313;50.116;8.424;2022-09-09T21:08:41;0.75;;;0.75;;
22289;SDS011;11313;50.116;8.424;2022-09-09T21:11:21;2.05;;;1.33;;
22289;SDS011;11313;50.116;8.424;2022-09-09T21:14:04;2.83;;;1.15;;
22289;SDS011;11313;50.116;8.424;2022-09-09T21:16:35;1.85;;;0.70;;
22289;SDS011;11313;50.116;8.424;2022-09-09T21:19:10;0.90;;;0.60;;
22289;SDS011;11313;50.116;8.424;2022-09-09T21:21:36;1.45;;;0.70;;
22289;SDS011;11313;50.116;8.424;2022-09-09T21:24:07;0.82;;;0.60;;
22289;SDS011;11313;50.116;8.424;2022-09-09T21:26:39;0.98;;;0.85;;
22289;SDS011;11313;50.116;8.424;2022-09-09T21:29:04;0.82;;;0.63;;
22289;SDS011;11313;50.116;8.424;2022-09-09T21:31:45;1.70;;;0.75;;
22289;SDS011;11313;50.116;8.424;2022-09-09T21:34:23;2.03;;;0.73;;
22289;SDS011;11313;50.116;8.424;2022-09-09T21:36:49;2.20;;;0.60;;
22289;SDS011;11313;50.116;8.424;2022-09-09T21:39:15;1.35;;;0.70;;
22289;SDS011;11313;50.116;8.424;2022-09-09T21:41:41;2.53;;;0.70;;
22289;SDS011;11313;50.116;8.424;2022-09-09T21:44:11;2.22;;;0.88;;
22289;SDS011;11313;50.116;8.424;2022-09-09T21:46:38;1.52;;;0.70;;
22289;SDS011;11313;50.116;8.424;2022-09-09T21:49:07;1.40;;;0.60;;
22289;SDS011;11313;50.116;8.424;2022-09-09T21:51:40;3.88;;;0.98;;
22289;SDS011;11313;50.116;8.424;2022-09-09T21:54:12;3.03;;;2.75;;